sensor_id;sensor_type;location;lat;lon;timestamp;P1;durP1;ratioP1;P2;durP2;ratioP2
50555;SDS011;36508;52.512;13.450;2022-10-16T00:01:21;4.20;;;3.30;;
50555;SDS011;36508;52.512;13.450;2022-10-16T00:03:48;4.00;;;3.80;;
50555;SDS011;36508;52.512;13.450;2022-10-16T00:06:16;3.50;;;3.30;;
50555;SDS011;36508;52.512;13.450;2022-10-16T00:08:42;3.40;;;3.30;;
50555;SDS011;36508;52.512;13.450;2022-10-16T00:11:10;3.87;;;3.60;;
50555;SDS011;36508;52.512;13.450;2022-10-16T00:13:38;3.57;;;3.33;;
50555;SDS011;36508;52.512;13.450;2022-10-16T00:16:05;4.07;;;3.00;;
50555;SDS011;36508;52.512;13.450;2022-10-16T00:18:32;3.03;;;2.90;;
50555;SDS011;36508;52.512;13.450;2022-10-16T00:21:04;3.57;;;3.37;;
50555;SDS011;36508;52.512;13.450;2022-10-16T00:23:40;3.90;;;3.70;;
50555;SDS011;36508;52.512;13.450;2022-10-16T00:26:08;4.90;;;4.60;;
50555;SDS011;36508;52.512;13.450;2022-10-16T00:28:35;3.50;;;3.20;;
50555;SDS011;36508;52.512;13.450;2022-10-16T00:31:05;4.50;;;4.20;;
50555;SDS011;36508;52.512;13.450;2022-10-16T00:33:32;3.60;;;3.30;;
50555;SDS011;36508;52.512;13.450;2022-10-16T00:35:59;3.17;;;2.97;;
50555;SDS011;36508;52.512;13.450;2022-10-16T00:38:24;2.80;;;2.70;;
50555;SDS011;36508;52.512;13.450;2022-10-16T00:40:50;2.70;;;2.60;;
50555;SDS011;36508;52.512;13.450;2022-10-16T00:46:14;2.90;;;2.70;;
50555;SDS011;36508;52.512;13.450;2022-10-16T00:48:55;3.33;;;3.20;;
50555;SDS011;36508;52.512;13.450;2022-10-16T00:51:29;3.23;;;2.97;;
50555;SDS011;36508;52.512;13.450;2022-10-16T00:53:59;2.90;;;2.70;;
50555;SDS011;36508;52.512;13.450;2022-10-16T00:56:27;2.50;;;2.40;;
50555;SDS011;36508;52.512;13.450;2022-10-16T00:58:53;2.97;;;2.77;;
50555;SDS011;36508;52.512;13.450;2022-10-16T01:01:18;2.33;;;2.23;;
50555;SDS011;36508;52.512;13.450;2022-10-16T01:03:44;2.20;;;2.10;;
50555;SDS011;36508;52.512;13.450;2022-10-16T01:14:21;2.63;;;2.43;;
50555;SDS011;36508;52.512;13.450;2022-10-16T01:16:54;2.50;;;2.30;;
50555;SDS011;36508;52.512;13.450;2022-10-16T01:19:36;3.00;;;2.80;;
50555;SDS011;36508;52.512;13.450;2022-10-16T01:22:06;2.20;;;2.10;;
50555;SDS011;36508;52.512;13.450;2022-10-16T01:24:38;2.10;;;2.00;;
50555;SDS011;36508;52.512;13.450;2022-10-16T01:30:02;2.83;;;2.67;;
50555;SDS011;36508;52.512;13.450;2022-10-16T01:37:43;2.27;;;2.03;;
50555;SDS011;36508;52.512;13.450;2022-10-16T01:40:16;2.40;;;2.30;;
50555;SDS011;36508;52.512;13.450;2022-10-16T01:42:46;2.93;;;2.70;;
50555;SDS011;36508;52.512;13.450;2022-10-16T01:45:18;2.30;;;2.20;;
50555;SDS011;36508;52.512;13.450;2022-10-16T01:47:48;2.70;;;2.50;;
50555;SDS011;36508;52.512;13.450;2022-10-16T01:50:16;3.00;;;2.50;;
50555;SDS011;36508;52.512;13.450;2022-10-16T01:52:44;2.60;;;2.50;;
50555;SDS011;36508;52.512;13.450;2022-10-16T01:55:16;2.00;;;1.90;;
50555;SDS011;36508;52.512;13.450;2022-10-16T01:57:47;2.77;;;2.20;;
50555;SDS011;36508;52.512;13.450;2022-10-16T02:00:15;2.40;;;2.30;;
50555;SDS011;36508;52.512;13.450;2022-10-16T02:02:45;4.27;;;2.10;;
50555;SDS011;36508;52.512;13.450;2022-10-16T02:07:48;2.00;;;1.90;;
50555;SDS011;36508;52.512;13.450;2022-10-16T02:10:15;2.60;;;2.20;;
50555;SDS011;36508;52.512;13.450;2022-10-16T02:12:42;2.00;;;1.90;;
50555;SDS011;36508;52.512;13.450;2022-10-16T02:15:12;4.70;;;2.70;;
50555;SDS011;36508;52.512;13.450;2022-10-16T02:17:37;2.60;;;2.50;;
50555;SDS011;36508;52.512;13.450;2022-10-16T02:20:03;2.00;;;1.90;;
50555;SDS011;36508;52.512;13.450;2022-10-16T02:22:31;2.37;;;2.27;;
50555;SDS011;36508;52.512;13.450;2022-10-16T02:25:05;2.63;;;2.43;;
50555;SDS011;36508;52.512;13.450;2022-10-16T02:27:48;2.37;;;2.20;;
50555;SDS011;36508;52.512;13.450;2022-10-16T02:30:22;1.90;;;1.80;;
50555;SDS011;36508;52.512;13.450;2022-10-16T02:33:02;1.70;;;1.60;;
50555;SDS011;36508;52.512;13.450;2022-10-16T02:35:29;1.90;;;1.80;;
50555;SDS011;36508;52.512;13.450;2022-10-16T02:37:56;2.37;;;2.17;;
50555;SDS011;36508;52.512;13.450;2022-10-16T02:42:51;2.57;;;2.33;;
50555;SDS011;36508;52.512;13.450;2022-10-16T02:45:18;2.13;;;2.03;;
50555;SDS011;36508;52.512;13.450;2022-10-16T02:47:44;2.10;;;2.00;;
50555;SDS011;36508;52.512;13.450;2022-10-16T02:50:09;2.73;;;2.63;;
50555;SDS011;36508;52.512;13.450;2022-10-16T02:52:35;1.97;;;1.87;;
50555;SDS011;36508;52.512;13.450;2022-10-16T02:55:01;2.40;;;2.30;;
50555;SDS011;36508;52.512;13.450;2022-10-16T02:57:26;2.43;;;2.20;;
50555;SDS011;36508;52.512;13.450;2022-10-16T02:59:52;1.83;;;1.73;;
50555;SDS011;36508;52.512;13.450;2022-10-16T03:02:17;3.20;;;2.23;;
50555;SDS011;36508;52.512;13.450;2022-10-16T03:04:43;1.67;;;1.57;;
50555;SDS011;36508;52.512;13.450;2022-10-16T03:07:09;2.43;;;2.33;;
50555;SDS011;36508;52.512;13.450;2022-10-16T03:09:34;2.27;;;2.17;;
50555;SDS011;36508;52.512;13.450;2022-10-16T03:11:59;2.60;;;2.40;;
50555;SDS011;36508;52.512;13.450;2022-10-16T03:14:25;2.30;;;2.20;;
50555;SDS011;36508;52.512;13.450;2022-10-16T03:16:51;2.17;;;2.07;;
50555;SDS011;36508;52.512;13.450;2022-10-16T03:19:17;2.47;;;2.27;;
50555;SDS011;36508;52.512;13.450;2022-10-16T03:21:42;2.60;;;2.40;;
50555;SDS011;36508;52.512;13.450;2022-10-16T03:24:08;2.37;;;2.27;;
50555;SDS011;36508;52.512;13.450;2022-10-16T03:26:34;1.80;;;1.77;;
50555;SDS011;36508;52.512;13.450;2022-10-16T03:28:59;2.27;;;2.07;;
50555;SDS011;36508;52.512;13.450;2022-10-16T03:31:27;1.67;;;1.57;;
50555;SDS011;36508;52.512;13.450;2022-10-16T03:33:52;2.07;;;1.97;;
50555;SDS011;36508;52.512;13.450;2022-10-16T03:36:18;2.23;;;2.13;;
50555;SDS011;36508;52.512;13.450;2022-10-16T03:38:43;2.27;;;2.07;;
50555;SDS011;36508;52.512;13.450;2022-10-16T03:41:09;4.10;;;2.17;;
50555;SDS011;36508;52.512;13.450;2022-10-16T03:43:34;2.00;;;1.90;;
50555;SDS011;36508;52.512;13.450;2022-10-16T03:46:00;2.00;;;1.90;;
50555;SDS011;36508;52.512;13.450;2022-10-16T03:48:26;2.33;;;2.23;;
50555;SDS011;36508;52.512;13.450;2022-10-16T03:50:51;3.03;;;2.93;;
50555;SDS011;36508;52.512;13.450;2022-10-16T03:53:17;2.00;;;1.90;;
50555;SDS011;36508;52.512;13.450;2022-10-16T03:55:43;2.63;;;2.43;;
50555;SDS011;36508;52.512;13.450;2022-10-16T03:58:09;2.30;;;2.20;;
50555;SDS011;36508;52.512;13.450;2022-10-16T04:00:36;5.23;;;2.40;;
50555;SDS011;36508;52.512;13.450;2022-10-16T04:03:07;1.97;;;1.87;;
50555;SDS011;36508;52.512;13.450;2022-10-16T04:05:33;2.47;;;2.27;;
50555;SDS011;36508;52.512;13.450;2022-10-16T04:07:59;2.70;;;2.60;;
50555;SDS011;36508;52.512;13.450;2022-10-16T04:10:24;2.70;;;2.50;;
50555;SDS011;36508;52.512;13.450;2022-10-16T04:12:51;2.13;;;1.97;;
50555;SDS011;36508;52.512;13.450;2022-10-16T04:15:16;4.13;;;2.77;;
50555;SDS011;36508;52.512;13.450;2022-10-16T04:17:42;2.20;;;2.10;;
50555;SDS011;36508;52.512;13.450;2022-10-16T04:20:07;2.00;;;1.90;;
50555;SDS011;36508;52.512;13.450;2022-10-16T04:22:33;3.07;;;2.47;;
50555;SDS011;36508;52.512;13.450;2022-10-16T04:24:58;4.00;;;2.30;;
50555;SDS011;36508;52.512;13.450;2022-10-16T04:27:24;2.90;;;2.20;;
50555;SDS011;36508;52.512;13.450;2022-10-16T04:29:50;3.00;;;2.90;;
50555;SDS011;36508;52.512;13.450;2022-10-16T04:32:15;2.03;;;1.93;;
50555;SDS011;36508;52.512;13.450;2022-10-16T04:34:41;3.30;;;2.67;;
50555;SDS011;36508;52.512;13.450;2022-10-16T04:37:06;1.87;;;1.77;;
50555;SDS011;36508;52.512;13.450;2022-10-16T04:39:32;2.57;;;2.37;;
50555;SDS011;36508;52.512;13.450;2022-10-16T04:41:57;2.70;;;2.60;;
50555;SDS011;36508;52.512;13.450;2022-10-16T04:44:23;2.70;;;2.53;;
50555;SDS011;36508;52.512;13.450;2022-10-16T04:46:51;2.47;;;2.27;;
50555;SDS011;36508;52.512;13.450;2022-10-16T04:49:17;2.90;;;2.63;;
50555;SDS011;36508;52.512;13.450;2022-10-16T04:51:42;3.13;;;2.93;;
50555;SDS011;36508;52.512;13.450;2022-10-16T04:54:08;4.33;;;2.73;;
50555;SDS011;36508;52.512;13.450;2022-10-16T04:56:36;3.07;;;2.87;;
50555;SDS011;36508;52.512;13.450;2022-10-16T04:59:08;4.90;;;3.47;;
50555;SDS011;36508;52.512;13.450;2022-10-16T05:01:34;7.70;;;4.20;;
50555;SDS011;36508;52.512;13.450;2022-10-16T05:04:00;3.10;;;3.00;;
50555;SDS011;36508;52.512;13.450;2022-10-16T05:06:25;5.13;;;4.83;;
50555;SDS011;36508;52.512;13.450;2022-10-16T05:08:50;3.23;;;3.03;;
50555;SDS011;36508;52.512;13.450;2022-10-16T05:11:18;3.37;;;3.17;;
50555;SDS011;36508;52.512;13.450;2022-10-16T05:13:43;3.80;;;3.60;;
50555;SDS011;36508;52.512;13.450;2022-10-16T05:16:08;4.07;;;3.87;;
50555;SDS011;36508;52.512;13.450;2022-10-16T05:18:34;3.43;;;3.30;;
50555;SDS011;36508;52.512;13.450;2022-10-16T05:20:59;3.53;;;3.13;;
50555;SDS011;36508;52.512;13.450;2022-10-16T05:23:25;3.47;;;3.30;;
50555;SDS011;36508;52.512;13.450;2022-10-16T05:25:54;4.23;;;4.03;;
50555;SDS011;36508;52.512;13.450;2022-10-16T05:28:23;4.00;;;3.50;;
50555;SDS011;36508;52.512;13.450;2022-10-16T05:30:49;4.17;;;3.87;;
50555;SDS011;36508;52.512;13.450;2022-10-16T05:33:14;4.70;;;4.20;;
50555;SDS011;36508;52.512;13.450;2022-10-16T05:35:40;4.23;;;3.83;;
50555;SDS011;36508;52.512;13.450;2022-10-16T05:38:05;8.30;;;7.50;;
50555;SDS011;36508;52.512;13.450;2022-10-16T05:40:31;5.93;;;4.30;;
50555;SDS011;36508;52.512;13.450;2022-10-16T05:42:58;4.00;;;3.70;;
50555;SDS011;36508;52.512;13.450;2022-10-16T05:45:23;3.30;;;2.80;;
50555;SDS011;36508;52.512;13.450;2022-10-16T05:47:49;3.63;;;3.30;;
50555;SDS011;36508;52.512;13.450;2022-10-16T05:50:15;4.00;;;3.70;;
50555;SDS011;36508;52.512;13.450;2022-10-16T05:52:40;3.40;;;3.20;;
50555;SDS011;36508;52.512;13.450;2022-10-16T05:55:06;3.07;;;2.97;;
50555;SDS011;36508;52.512;13.450;2022-10-16T05:57:32;2.80;;;2.70;;
50555;SDS011;36508;52.512;13.450;2022-10-16T05:59:57;2.83;;;2.73;;
50555;SDS011;36508;52.512;13.450;2022-10-16T06:02:23;4.57;;;4.13;;
50555;SDS011;36508;52.512;13.450;2022-10-16T06:04:48;3.33;;;2.60;;
50555;SDS011;36508;52.512;13.450;2022-10-16T06:07:14;3.53;;;3.33;;
50555;SDS011;36508;52.512;13.450;2022-10-16T06:09:40;4.30;;;3.90;;
50555;SDS011;36508;52.512;13.450;2022-10-16T06:12:05;4.23;;;3.83;;
50555;SDS011;36508;52.512;13.450;2022-10-16T06:14:30;2.93;;;2.73;;
50555;SDS011;36508;52.512;13.450;2022-10-16T06:16:57;7.07;;;4.10;;
50555;SDS011;36508;52.512;13.450;2022-10-16T06:19:22;5.40;;;5.00;;
50555;SDS011;36508;52.512;13.450;2022-10-16T06:21:48;3.63;;;3.43;;
50555;SDS011;36508;52.512;13.450;2022-10-16T06:24:13;6.00;;;5.50;;
50555;SDS011;36508;52.512;13.450;2022-10-16T06:26:39;3.70;;;3.40;;
50555;SDS011;36508;52.512;13.450;2022-10-16T06:29:04;3.90;;;3.60;;
50555;SDS011;36508;52.512;13.450;2022-10-16T06:31:30;4.53;;;4.10;;
50555;SDS011;36508;52.512;13.450;2022-10-16T06:33:58;5.13;;;3.87;;
50555;SDS011;36508;52.512;13.450;2022-10-16T06:36:24;3.77;;;3.47;;
50555;SDS011;36508;52.512;13.450;2022-10-16T06:38:50;4.80;;;4.30;;
50555;SDS011;36508;52.512;13.450;2022-10-16T06:41:17;3.77;;;3.47;;
50555;SDS011;36508;52.512;13.450;2022-10-16T06:43:44;2.80;;;2.60;;
50555;SDS011;36508;52.512;13.450;2022-10-16T06:46:12;3.77;;;3.47;;
50555;SDS011;36508;52.512;13.450;2022-10-16T06:48:40;3.83;;;3.63;;
50555;SDS011;36508;52.512;13.450;2022-10-16T06:51:10;3.57;;;3.30;;
50555;SDS011;36508;52.512;13.450;2022-10-16T06:53:38;6.00;;;5.50;;
50555;SDS011;36508;52.512;13.450;2022-10-16T06:56:12;3.97;;;3.60;;
50555;SDS011;36508;52.512;13.450;2022-10-16T06:58:43;3.27;;;3.07;;
50555;SDS011;36508;52.512;13.450;2022-10-16T07:01:09;3.70;;;3.50;;
50555;SDS011;36508;52.512;13.450;2022-10-16T07:03:39;3.40;;;3.20;;
50555;SDS011;36508;52.512;13.450;2022-10-16T07:06:06;5.33;;;4.83;;
50555;SDS011;36508;52.512;13.450;2022-10-16T07:08:33;4.37;;;4.07;;
50555;SDS011;36508;52.512;13.450;2022-10-16T07:11:01;5.53;;;5.13;;
50555;SDS011;36508;52.512;13.450;2022-10-16T07:13:28;5.80;;;4.50;;
50555;SDS011;36508;52.512;13.450;2022-10-16T07:15:54;8.23;;;7.27;;
50555;SDS011;36508;52.512;13.450;2022-10-16T07:18:19;4.43;;;4.03;;
50555;SDS011;36508;52.512;13.450;2022-10-16T07:20:45;4.20;;;3.57;;
50555;SDS011;36508;52.512;13.450;2022-10-16T07:23:10;5.03;;;4.63;;
50555;SDS011;36508;52.512;13.450;2022-10-16T07:25:36;4.83;;;4.27;;
50555;SDS011;36508;52.512;13.450;2022-10-16T07:28:01;4.40;;;4.00;;
50555;SDS011;36508;52.512;13.450;2022-10-16T07:30:27;5.87;;;3.33;;
50555;SDS011;36508;52.512;13.450;2022-10-16T07:32:52;3.70;;;3.50;;
50555;SDS011;36508;52.512;13.450;2022-10-16T07:35:18;4.40;;;4.10;;
50555;SDS011;36508;52.512;13.450;2022-10-16T07:37:44;2.80;;;2.70;;
50555;SDS011;36508;52.512;13.450;2022-10-16T07:40:10;8.60;;;3.20;;
50555;SDS011;36508;52.512;13.450;2022-10-16T07:42:36;6.23;;;5.43;;
50555;SDS011;36508;52.512;13.450;2022-10-16T07:45:02;3.20;;;3.10;;
50555;SDS011;36508;52.512;13.450;2022-10-16T07:47:27;3.37;;;3.17;;
50555;SDS011;36508;52.512;13.450;2022-10-16T07:49:53;3.37;;;3.17;;
50555;SDS011;36508;52.512;13.450;2022-10-16T07:52:18;2.47;;;2.33;;
50555;SDS011;36508;52.512;13.450;2022-10-16T07:54:44;4.23;;;2.67;;
50555;SDS011;36508;52.512;13.450;2022-10-16T07:57:09;3.70;;;3.40;;
50555;SDS011;36508;52.512;13.450;2022-10-16T07:59:35;2.47;;;2.27;;
50555;SDS011;36508;52.512;13.450;2022-10-16T08:02:00;2.13;;;2.03;;
50555;SDS011;36508;52.512;13.450;2022-10-16T08:04:27;2.90;;;2.70;;
50555;SDS011;36508;52.512;13.450;2022-10-16T08:06:53;2.90;;;2.70;;
50555;SDS011;36508;52.512;13.450;2022-10-16T08:09:19;2.20;;;2.10;;
50555;SDS011;36508;52.512;13.450;2022-10-16T08:11:44;3.37;;;3.27;;
50555;SDS011;36508;52.512;13.450;2022-10-16T08:14:10;5.70;;;2.30;;
50555;SDS011;36508;52.512;13.450;2022-10-16T08:16:35;3.17;;;3.07;;
50555;SDS011;36508;52.512;13.450;2022-10-16T08:19:01;3.00;;;2.57;;
50555;SDS011;36508;52.512;13.450;2022-10-16T08:21:27;2.30;;;2.20;;
50555;SDS011;36508;52.512;13.450;2022-10-16T08:23:53;2.60;;;1.97;;
50555;SDS011;36508;52.512;13.450;2022-10-16T08:26:19;2.10;;;2.00;;
50555;SDS011;36508;52.512;13.450;2022-10-16T08:28:45;1.60;;;1.50;;
50555;SDS011;36508;52.512;13.450;2022-10-16T08:31:11;2.10;;;2.00;;
50555;SDS011;36508;52.512;13.450;2022-10-16T08:33:39;2.30;;;2.10;;
50555;SDS011;36508;52.512;13.450;2022-10-16T08:36:06;2.27;;;2.17;;
50555;SDS011;36508;52.512;13.450;2022-10-16T08:38:33;2.07;;;1.97;;
50555;SDS011;36508;52.512;13.450;2022-10-16T08:41:08;3.33;;;1.80;;
50555;SDS011;36508;52.512;13.450;2022-10-16T08:43:40;3.07;;;1.90;;
50555;SDS011;36508;52.512;13.450;2022-10-16T08:46:47;2.30;;;1.97;;
50555;SDS011;36508;52.512;13.450;2022-10-16T08:49:35;2.20;;;1.87;;
50555;SDS011;36508;52.512;13.450;2022-10-16T08:52:03;2.03;;;1.93;;
50555;SDS011;36508;52.512;13.450;2022-10-16T08:54:30;2.23;;;1.70;;
50555;SDS011;36508;52.512;13.450;2022-10-16T08:57:13;1.93;;;1.83;;
50555;SDS011;36508;52.512;13.450;2022-10-16T08:59:42;2.43;;;2.23;;
50555;SDS011;36508;52.512;13.450;2022-10-16T09:02:24;2.13;;;2.03;;
50555;SDS011;36508;52.512;13.450;2022-10-16T09:08:20;2.90;;;2.80;;
50555;SDS011;36508;52.512;13.450;2022-10-16T09:10:59;1.57;;;1.47;;
50555;SDS011;36508;52.512;13.450;2022-10-16T09:13:48;3.33;;;1.80;;
50555;SDS011;36508;52.512;13.450;2022-10-16T09:16:24;1.90;;;1.80;;
50555;SDS011;36508;52.512;13.450;2022-10-16T09:21:52;1.53;;;1.43;;
50555;SDS011;36508;52.512;13.450;2022-10-16T09:24:20;1.60;;;1.50;;
50555;SDS011;36508;52.512;13.450;2022-10-16T09:26:48;1.97;;;1.87;;
50555;SDS011;36508;52.512;13.450;2022-10-16T09:29:15;3.60;;;2.13;;
50555;SDS011;36508;52.512;13.450;2022-10-16T09:31:42;2.13;;;1.90;;
50555;SDS011;36508;52.512;13.450;2022-10-16T09:34:13;1.23;;;1.23;;
50555;SDS011;36508;52.512;13.450;2022-10-16T09:37:04;1.70;;;1.60;;
50555;SDS011;36508;52.512;13.450;2022-10-16T09:39:45;1.70;;;1.60;;
50555;SDS011;36508;52.512;13.450;2022-10-16T09:42:18;2.57;;;1.50;;
50555;SDS011;36508;52.512;13.450;2022-10-16T09:44:49;3.67;;;1.87;;
50555;SDS011;36508;52.512;13.450;2022-10-16T09:47:18;1.80;;;1.70;;
50555;SDS011;36508;52.512;13.450;2022-10-16T09:49:53;1.50;;;1.40;;
50555;SDS011;36508;52.512;13.450;2022-10-16T09:52:26;2.10;;;1.60;;
50555;SDS011;36508;52.512;13.450;2022-10-16T09:54:57;2.63;;;2.47;;
50555;SDS011;36508;52.512;13.450;2022-10-16T09:57:37;3.17;;;1.70;;
50555;SDS011;36508;52.512;13.450;2022-10-16T10:00:15;3.40;;;1.57;;
50555;SDS011;36508;52.512;13.450;2022-10-16T10:02:42;1.27;;;1.17;;
50555;SDS011;36508;52.512;13.450;2022-10-16T10:05:18;3.47;;;2.00;;
50555;SDS011;36508;52.512;13.450;2022-10-16T10:07:52;2.93;;;1.90;;
50555;SDS011;36508;52.512;13.450;2022-10-16T10:10:24;1.23;;;1.23;;
50555;SDS011;36508;52.512;13.450;2022-10-16T10:12:51;1.73;;;1.20;;
50555;SDS011;36508;52.512;13.450;2022-10-16T10:15:17;2.07;;;1.87;;
50555;SDS011;36508;52.512;13.450;2022-10-16T10:17:53;1.87;;;1.23;;
50555;SDS011;36508;52.512;13.450;2022-10-16T10:20:33;1.23;;;1.13;;
50555;SDS011;36508;52.512;13.450;2022-10-16T10:23:00;2.30;;;1.97;;
50555;SDS011;36508;52.512;13.450;2022-10-16T10:25:58;1.70;;;1.60;;
50555;SDS011;36508;52.512;13.450;2022-10-16T10:35:15;2.07;;;1.43;;
50555;SDS011;36508;52.512;13.450;2022-10-16T10:40:28;1.47;;;1.37;;
50555;SDS011;36508;52.512;13.450;2022-10-16T10:43:28;2.13;;;1.30;;
50555;SDS011;36508;52.512;13.450;2022-10-16T10:46:26;2.60;;;1.60;;
50555;SDS011;36508;52.512;13.450;2022-10-16T10:54:19;1.30;;;1.20;;
50555;SDS011;36508;52.512;13.450;2022-10-16T10:57:02;1.20;;;1.10;;
50555;SDS011;36508;52.512;13.450;2022-10-16T11:02:37;1.30;;;1.20;;
50555;SDS011;36508;52.512;13.450;2022-10-16T11:05:29;1.10;;;1.00;;
50555;SDS011;36508;52.512;13.450;2022-10-16T11:08:06;1.13;;;1.03;;
50555;SDS011;36508;52.512;13.450;2022-10-16T11:10:50;1.30;;;1.30;;
50555;SDS011;36508;52.512;13.450;2022-10-16T11:13:26;1.47;;;1.40;;
50555;SDS011;36508;52.512;13.450;2022-10-16T11:16:03;4.83;;;1.73;;
50555;SDS011;36508;52.512;13.450;2022-10-16T11:18:49;3.33;;;1.53;;
50555;SDS011;36508;52.512;13.450;2022-10-16T11:21:22;2.30;;;1.13;;
50555;SDS011;36508;52.512;13.450;2022-10-16T11:23:51;1.40;;;1.40;;
50555;SDS011;36508;52.512;13.450;2022-10-16T11:26:30;1.33;;;1.23;;
50555;SDS011;36508;52.512;13.450;2022-10-16T11:31:29;1.40;;;1.30;;
50555;SDS011;36508;52.512;13.450;2022-10-16T11:34:04;1.33;;;1.23;;
50555;SDS011;36508;52.512;13.450;2022-10-16T11:36:33;2.10;;;1.70;;
50555;SDS011;36508;52.512;13.450;2022-10-16T11:39:18;1.00;;;1.00;;
50555;SDS011;36508;52.512;13.450;2022-10-16T11:41:50;1.10;;;1.10;;
50555;SDS011;36508;52.512;13.450;2022-10-16T11:44:36;0.90;;;0.90;;
50555;SDS011;36508;52.512;13.450;2022-10-16T11:50:20;1.30;;;1.20;;
50555;SDS011;36508;52.512;13.450;2022-10-16T11:52:55;1.73;;;1.63;;
50555;SDS011;36508;52.512;13.450;2022-10-16T11:55:36;1.20;;;1.10;;
50555;SDS011;36508;52.512;13.450;2022-10-16T11:58:05;1.23;;;1.13;;
50555;SDS011;36508;52.512;13.450;2022-10-16T12:00:41;1.80;;;1.63;;
50555;SDS011;36508;52.512;13.450;2022-10-16T12:03:18;1.10;;;1.10;;
50555;SDS011;36508;52.512;13.450;2022-10-16T12:08:47;2.00;;;1.07;;
50555;SDS011;36508;52.512;13.450;2022-10-16T12:16:56;2.40;;;2.20;;
50555;SDS011;36508;52.512;13.450;2022-10-16T12:19:26;1.20;;;1.00;;
50555;SDS011;36508;52.512;13.450;2022-10-16T12:21:58;1.53;;;1.43;;
50555;SDS011;36508;52.512;13.450;2022-10-16T12:24:35;0.90;;;0.90;;
50555;SDS011;36508;52.512;13.450;2022-10-16T12:27:20;3.47;;;0.90;;
50555;SDS011;36508;52.512;13.450;2022-10-16T12:29:56;2.90;;;1.13;;
50555;SDS011;36508;52.512;13.450;2022-10-16T12:32:30;1.63;;;0.90;;
50555;SDS011;36508;52.512;13.450;2022-10-16T12:35:02;1.73;;;1.63;;
50555;SDS011;36508;52.512;13.450;2022-10-16T12:37:31;1.10;;;1.10;;
50555;SDS011;36508;52.512;13.450;2022-10-16T12:40:15;1.80;;;0.80;;
50555;SDS011;36508;52.512;13.450;2022-10-16T12:42:41;1.77;;;0.90;;
50555;SDS011;36508;52.512;13.450;2022-10-16T12:45:21;0.90;;;0.90;;
50555;SDS011;36508;52.512;13.450;2022-10-16T12:52:56;1.00;;;1.00;;
50555;SDS011;36508;52.512;13.450;2022-10-16T12:55:22;0.70;;;0.70;;
50555;SDS011;36508;52.512;13.450;2022-10-16T13:19:50;2.47;;;2.27;;
50555;SDS011;36508;52.512;13.450;2022-10-16T13:28:10;1.07;;;1.07;;
50555;SDS011;36508;52.512;13.450;2022-10-16T13:30:43;0.90;;;0.90;;
50555;SDS011;36508;52.512;13.450;2022-10-16T13:33:20;0.80;;;0.77;;
50555;SDS011;36508;52.512;13.450;2022-10-16T13:35:53;0.90;;;0.90;;
50555;SDS011;36508;52.512;13.450;2022-10-16T13:38:21;0.97;;;0.87;;
50555;SDS011;36508;52.512;13.450;2022-10-16T13:40:56;7.23;;;4.73;;
50555;SDS011;36508;52.512;13.450;2022-10-16T13:43:50;0.80;;;0.80;;
50555;SDS011;36508;52.512;13.450;2022-10-16T13:46:21;1.37;;;1.00;;
50555;SDS011;36508;52.512;13.450;2022-10-16T13:51:31;0.70;;;0.70;;
50555;SDS011;36508;52.512;13.450;2022-10-16T13:53:57;2.47;;;0.87;;
50555;SDS011;36508;52.512;13.450;2022-10-16T13:56:28;0.80;;;0.80;;
50555;SDS011;36508;52.512;13.450;2022-10-16T13:59:22;1.20;;;1.10;;
50555;SDS011;36508;52.512;13.450;2022-10-16T14:01:50;0.90;;;0.90;;
50555;SDS011;36508;52.512;13.450;2022-10-16T14:04:21;1.97;;;1.83;;
50555;SDS011;36508;52.512;13.450;2022-10-16T14:06:54;0.70;;;0.70;;
50555;SDS011;36508;52.512;13.450;2022-10-16T14:09:26;2.03;;;0.70;;
50555;SDS011;36508;52.512;13.450;2022-10-16T14:11:58;1.17;;;1.07;;
50555;SDS011;36508;52.512;13.450;2022-10-16T14:14:40;1.83;;;0.83;;
50555;SDS011;36508;52.512;13.450;2022-10-16T14:17:18;0.90;;;0.90;;
50555;SDS011;36508;52.512;13.450;2022-10-16T14:19:48;1.17;;;1.07;;
50555;SDS011;36508;52.512;13.450;2022-10-16T14:24:56;2.50;;;1.20;;
50555;SDS011;36508;52.512;13.450;2022-10-16T14:27:31;1.10;;;1.00;;
50555;SDS011;36508;52.512;13.450;2022-10-16T14:30:19;4.03;;;3.77;;
50555;SDS011;36508;52.512;13.450;2022-10-16T14:32:53;1.60;;;1.50;;
50555;SDS011;36508;52.512;13.450;2022-10-16T14:37:51;3.10;;;0.97;;
50555;SDS011;36508;52.512;13.450;2022-10-16T14:40:18;1.63;;;0.80;;
50555;SDS011;36508;52.512;13.450;2022-10-16T14:42:45;1.47;;;1.37;;
50555;SDS011;36508;52.512;13.450;2022-10-16T14:45:11;1.87;;;1.13;;
50555;SDS011;36508;52.512;13.450;2022-10-16T14:47:37;2.00;;;1.23;;
50555;SDS011;36508;52.512;13.450;2022-10-16T14:50:13;1.57;;;1.17;;
50555;SDS011;36508;52.512;13.450;2022-10-16T14:52:38;1.40;;;1.30;;
50555;SDS011;36508;52.512;13.450;2022-10-16T14:55:04;7.50;;;3.77;;
50555;SDS011;36508;52.512;13.450;2022-10-16T14:57:31;1.10;;;1.00;;
50555;SDS011;36508;52.512;13.450;2022-10-16T15:00:00;1.83;;;1.07;;
50555;SDS011;36508;52.512;13.450;2022-10-16T15:02:30;1.20;;;1.00;;
50555;SDS011;36508;52.512;13.450;2022-10-16T15:07:46;1.83;;;1.47;;
50555;SDS011;36508;52.512;13.450;2022-10-16T15:10:12;1.53;;;1.43;;
50555;SDS011;36508;52.512;13.450;2022-10-16T15:12:38;1.90;;;1.23;;
50555;SDS011;36508;52.512;13.450;2022-10-16T15:17:57;1.33;;;1.23;;
50555;SDS011;36508;52.512;13.450;2022-10-16T15:20:29;1.70;;;1.60;;
50555;SDS011;36508;52.512;13.450;2022-10-16T15:23:00;0.83;;;0.83;;
50555;SDS011;36508;52.512;13.450;2022-10-16T15:27:58;1.50;;;1.30;;
50555;SDS011;36508;52.512;13.450;2022-10-16T15:30:25;4.00;;;3.30;;
50555;SDS011;36508;52.512;13.450;2022-10-16T15:32:51;1.37;;;1.27;;
50555;SDS011;36508;52.512;13.450;2022-10-16T15:35:18;2.13;;;1.40;;
50555;SDS011;36508;52.512;13.450;2022-10-16T15:37:45;2.27;;;1.50;;
50555;SDS011;36508;52.512;13.450;2022-10-16T15:40:12;4.50;;;0.90;;
50555;SDS011;36508;52.512;13.450;2022-10-16T15:42:38;1.87;;;1.77;;
50555;SDS011;36508;52.512;13.450;2022-10-16T15:45:04;4.00;;;2.40;;
50555;SDS011;36508;52.512;13.450;2022-10-16T15:47:31;2.30;;;1.40;;
50555;SDS011;36508;52.512;13.450;2022-10-16T15:49:56;1.20;;;1.10;;
50555;SDS011;36508;52.512;13.450;2022-10-16T15:52:22;1.43;;;1.20;;
50555;SDS011;36508;52.512;13.450;2022-10-16T15:54:48;1.50;;;1.40;;
50555;SDS011;36508;52.512;13.450;2022-10-16T15:57:13;2.50;;;1.57;;
50555;SDS011;36508;52.512;13.450;2022-10-16T15:59:39;2.03;;;1.93;;
50555;SDS011;36508;52.512;13.450;2022-10-16T16:02:04;2.03;;;1.57;;
50555;SDS011;36508;52.512;13.450;2022-10-16T16:04:30;1.90;;;1.63;;
50555;SDS011;36508;52.512;13.450;2022-10-16T16:06:56;2.80;;;2.50;;
50555;SDS011;36508;52.512;13.450;2022-10-16T16:09:21;2.43;;;2.30;;
50555;SDS011;36508;52.512;13.450;2022-10-16T16:11:47;1.80;;;1.70;;
50555;SDS011;36508;52.512;13.450;2022-10-16T16:14:14;2.20;;;2.00;;
50555;SDS011;36508;52.512;13.450;2022-10-16T16:16:39;2.40;;;2.30;;
50555;SDS011;36508;52.512;13.450;2022-10-16T16:19:06;3.43;;;2.33;;
50555;SDS011;36508;52.512;13.450;2022-10-16T16:21:32;2.17;;;1.90;;
50555;SDS011;36508;52.512;13.450;2022-10-16T16:23:58;4.43;;;3.93;;
50555;SDS011;36508;52.512;13.450;2022-10-16T16:26:25;1.77;;;1.67;;
50555;SDS011;36508;52.512;13.450;2022-10-16T16:28:52;2.90;;;1.80;;
50555;SDS011;36508;52.512;13.450;2022-10-16T16:31:19;3.70;;;3.20;;
50555;SDS011;36508;52.512;13.450;2022-10-16T16:33:46;2.20;;;1.93;;
50555;SDS011;36508;52.512;13.450;2022-10-16T16:36:11;5.73;;;5.23;;
50555;SDS011;36508;52.512;13.450;2022-10-16T16:38:37;7.80;;;4.37;;